Time;durP1;ratioP1;P1;durP2;ratioP2;P2;SDS_P1;SDS_P2;PMS_P1;PMS_P2;Temp;Humidity;BMP_temperature;BMP_pressure;BME280_temperature;BME280_humidity;BME280_pressure;Samples;Min_cycle;Max_cycle;Signal;HPM_P1;HPM_P2
2021/03/09 00:00:44;;;;;;;9.20;3.30;;;;;;;-5.74;56.03;98406.41;10680404;27;20133;-48
2021/03/09 00:05:45;;;;;;;8.27;3.78;;;;;;;-5.82;55.84;98406.69;10679254;27;20061;-51
2021/03/09 00:10:48;;;;;;;13.38;5.03;;;;;;;-5.90;55.95;98411.31;10675557;27;20050;-47
2021/03/09 00:15:49;;;;;;;7.37;2.90;;;;;;;-5.97;55.62;98407.34;10681200;27;20042;-51
2021/03/09 00:20:51;;;;;;;6.00;2.85;;;;;;;-6.06;55.59;98406.00;10678635;27;20074;-50
2021/03/09 00:25:55;;;;;;;8.48;3.10;;;;;;;-6.14;55.77;98406.28;10677666;27;20403;-47
2021/03/09 00:30:57;;;;;;;6.45;2.60;;;;;;;-6.16;54.87;98404.66;10675481;27;20439;-49
2021/03/09 00:35:58;;;;;;;9.98;2.85;;;;;;;-6.31;55.04;98414.59;10675110;27;20057;-51
2021/03/09 00:41:01;;;;;;;8.93;3.25;;;;;;;-6.39;54.78;98414.03;10675516;27;20048;-49
2021/03/09 00:46:03;;;;;;;8.07;2.63;;;;;;;-6.50;54.72;98414.41;10675597;27;20054;-48
2021/03/09 00:51:05;;;;;;;10.02;3.08;;;;;;;-6.54;54.79;98423.09;10675048;27;20046;-52
2021/03/09 00:56:08;;;;;;;8.77;2.83;;;;;;;-6.57;54.44;98420.66;10676654;27;20056;-49
2021/03/09 01:01:09;;;;;;;7.30;3.03;;;;;;;-6.64;54.26;98429.44;10670765;27;20046;-48
2021/03/09 01:06:12;;;;;;;6.22;2.60;;;;;;;-6.76;54.37;98437.56;10668008;27;20394;-52
2021/03/09 01:11:14;;;;;;;8.27;3.15;;;;;;;-6.84;54.60;98432.69;10668182;27;20502;-52
2021/03/09 01:16:16;;;;;;;6.07;3.17;;;;;;;-6.84;54.12;98436.97;10654799;27;20043;-58
2021/03/09 01:21:18;;;;;;;8.02;3.17;;;;;;;-6.83;53.96;98441.22;10674074;27;20065;-49
2021/03/09 01:26:20;;;;;;;8.20;3.72;;;;;;;-6.84;53.25;98445.47;10669738;27;20053;-48
2021/03/09 01:31:22;;;;;;;10.90;3.20;;;;;;;-6.84;53.36;98447.19;10670208;27;20360;-50
2021/03/09 01:36:24;;;;;;;5.72;2.65;;;;;;;-6.95;52.98;98448.41;10671341;27;20047;-50
2021/03/09 01:41:26;;;;;;;8.60;2.97;;;;;;;-7.04;53.54;98453.84;10669830;27;20056;-56
2021/03/09 01:46:28;;;;;;;6.72;2.53;;;;;;;-7.08;53.37;98457.41;10655352;27;20592;-63
2021/03/09 01:51:30;;;;;;;10.07;3.03;;;;;;;-7.15;52.91;98466.13;10671274;27;20066;-50
2021/03/09 01:56:33;;;;;;;8.80;2.83;;;;;;;-7.24;53.16;98469.81;10668392;27;20053;-48
2021/03/09 02:01:36;;;;;;;9.27;2.95;;;;;;;-7.31;53.09;98472.63;10669104;27;20114;-51
2021/03/09 02:06:37;;;;;;;9.25;2.80;;;;;;;-7.39;52.99;98477.97;10660561;27;20047;-49
2021/03/09 02:11:48;;;;;;;8.65;3.22;;;;;;;-7.45;53.08;98479.03;10625087;27;20582;-50
2021/03/09 02:16:58;;;;;;;7.05;3.25;;;;;;;-7.51;53.01;98479.22;10667308;27;20050;-48
2021/03/09 02:22:24;;;;;;;10.82;3.38;;;;;;;-7.58;52.89;98474.34;10667353;27;20532;-50
2021/03/09 02:27:35;;;;;;;10.75;3.95;;;;;;;-7.65;53.11;98476.25;10669280;27;20134;-52
2021/03/09 02:32:42;;;;;;;6.05;2.70;;;;;;;-7.67;52.79;98485.66;10669712;27;20054;-49
2021/03/09 02:37:45;;;;;;;10.23;3.47;;;;;;;-7.72;52.64;98490.94;10669189;27;20082;-50
2021/03/09 02:42:53;;;;;;;8.63;3.55;;;;;;;-7.78;52.05;98493.66;10668805;27;20371;-48
2021/03/09 02:47:59;;;;;;;10.70;3.05;;;;;;;-7.88;52.45;98498.22;10669186;27;20427;-51
2021/03/09 02:53:05;;;;;;;13.48;3.42;;;;;;;-7.96;52.31;98506.97;10668561;27;20130;-62
2021/03/09 02:58:09;;;;;;;8.05;2.83;;;;;;;-8.03;52.23;98515.69;10667229;27;20087;-48
2021/03/09 03:03:15;;;;;;;12.20;3.58;;;;;;;-8.13;52.13;98515.97;10666321;27;20050;-58
2021/03/09 03:08:17;;;;;;;9.95;3.55;;;;;;;-8.15;52.15;98527.91;10671057;27;20046;-51
2021/03/09 03:13:21;;;;;;;10.18;3.28;;;;;;;-8.17;52.15;98518.63;10667162;27;20470;-50
2021/03/09 03:18:25;;;;;;;7.95;3.00;;;;;;;-8.27;52.40;98522.31;10667523;27;20075;-50
2021/03/09 03:23:28;;;;;;;12.57;3.85;;;;;;;-8.38;52.10;98536.19;10666230;27;20054;-51
2021/03/09 03:28:30;;;;;;;11.00;2.90;;;;;;;-8.46;52.20;98538.16;10667692;27;20035;-49
2021/03/09 03:33:34;;;;;;;8.45;2.97;;;;;;;-8.45;52.42;98541.53;10665929;27;20467;-48
2021/03/09 03:38:37;;;;;;;10.67;2.90;;;;;;;-8.53;52.44;98541.72;10664738;27;20038;-58
2021/03/09 03:43:39;;;;;;;7.47;3.53;;;;;;;-8.52;52.85;98532.41;10646211;27;20050;-48
2021/03/09 03:48:46;;;;;;;11.33;3.73;;;;;;;-8.47;52.73;98540.72;10664925;27;20035;-50
2021/03/09 03:53:57;;;;;;;6.40;3.22;;;;;;;-8.37;53.13;98545.53;10648726;27;20042;-48
2021/03/09 03:59:06;;;;;;;12.45;3.60;;;;;;;-8.26;52.97;98547.75;10666383;27;20134;-48
2021/03/09 04:04:10;;;;;;;10.88;3.28;;;;;;;-8.17;53.13;98546.66;10666308;27;20042;-51
2021/03/09 04:09:12;;;;;;;8.57;3.50;;;;;;;-8.08;53.23;98548.97;10666104;27;20055;-52
2021/03/09 04:14:16;;;;;;;6.38;2.63;;;;;;;-8.08;52.70;98554.06;10663773;27;20056;-50
2021/03/09 04:19:18;;;;;;;;;;;;;;;-8.19;53.14;98550.97;10664640;27;20052;-50
2021/03/09 04:24:21;;;;;;;11.85;3.50;;;;;;;-8.09;54.10;98557.50;10667094;27;19958;-51
2021/03/09 04:29:24;;;;;;;8.95;3.50;;;;;;;-7.66;55.66;98558.81;10668256;27;20080;-52
2021/03/09 04:34:26;;;;;;;9.98;3.55;;;;;;;-7.36;56.73;98564.69;10667979;27;20130;-51
2021/03/09 04:39:28;;;;;;;7.10;3.07;;;;;;;-6.28;61.30;98578.16;10674729;27;20383;-50
2021/03/09 04:44:30;;;;;;;8.05;3.95;;;;;;;-4.95;64.60;98574.00;10674262;27;20047;-50
2021/03/09 04:49:34;;;;;;;11.13;4.15;;;;;;;-3.57;66.10;98583.47;10672997;27;20034;-53
2021/03/09 04:54:36;;;;;;;7.55;3.38;;;;;;;-2.48;66.85;98586.84;10675598;27;20097;-57
2021/03/09 04:59:38;;;;;;;9.82;4.55;;;;;;;-0.85;67.45;98593.69;10639713;27;20047;-52
2021/03/09 05:04:40;;;;;;;10.73;4.55;;;;;;;1.13;66.66;98600.69;10653014;27;20470;-54
2021/03/09 05:09:42;;;;;;;7.25;3.40;;;;;;;2.91;66.09;98604.22;10654252;27;20046;-54
2021/03/09 05:14:44;;;;;;;8.98;4.05;;;;;;;4.55;65.12;98616.22;10655092;27;20046;-54
2021/03/09 05:19:47;;;;;;;8.38;3.97;;;;;;;5.94;64.33;98616.38;10671554;27;20055;-52
2021/03/09 05:24:48;;;;;;;8.32;3.53;;;;;;;7.28;62.44;98616.19;10672142;27;20490;-52
2021/03/09 05:29:50;;;;;;;7.20;3.45;;;;;;;7.90;61.15;98620.16;10673253;27;20039;-55
2021/03/09 05:34:53;;;;;;;7.78;3.63;;;;;;;9.09;59.94;98623.88;10652494;27;20142;-53
2021/03/09 05:39:54;;;;;;;7.68;3.63;;;;;;;9.20;56.67;98626.25;10668051;27;20093;-54
2021/03/09 05:44:57;;;;;;;6.78;3.72;;;;;;;8.42;54.41;98636.31;10668143;27;20042;-59
2021/03/09 05:50:00;;;;;;;8.70;4.22;;;;;;;9.36;59.01;98635.25;10667945;27;20045;-54
2021/03/09 05:55:02;;;;;;;7.63;4.03;;;;;;;11.14;58.76;98638.38;10674616;27;20057;-52
2021/03/09 06:00:05;;;;;;;8.77;4.43;;;;;;;12.54;56.36;98645.34;10670017;27;20038;-55
2021/03/09 06:05:14;;;;;;;8.77;4.47;;;;;;;14.08;54.85;98650.75;10665316;27;20486;-54
2021/03/09 06:10:21;;;;;;;8.23;4.35;;;;;;;15.00;51.60;98645.19;10667904;27;20135;-55
2021/03/09 06:15:23;;;;;;;10.23;5.03;;;;;;;15.78;50.53;98651.53;10649956;27;20142;-53
2021/03/09 06:20:31;;;;;;;9.32;4.47;;;;;;;15.98;46.76;98651.72;10667795;27;20083;-54
2021/03/09 06:25:37;;;;;;;9.27;4.57;;;;;;;15.68;49.57;98660.81;10647869;27;20045;-55
2021/03/09 06:30:41;;;;;;;8.82;4.35;;;;;;;16.24;51.14;98660.91;10665353;27;20099;-55
2021/03/09 06:35:45;;;;;;;9.18;5.38;;;;;;;16.44;50.37;98672.47;10649783;27;20163;-54
2021/03/09 06:41:06;;;;;;;8.45;4.47;;;;;;;16.44;51.23;98666.34;10668803;27;20043;-55
2021/03/09 06:46:16;;;;;;;9.10;4.82;;;;;;;16.65;53.93;98681.38;10670390;27;20038;-56
2021/03/09 06:51:32;;;;;;;9.32;4.95;;;;;;;16.70;52.09;98679.78;10674310;27;20434;-55
2021/03/09 06:56:37;;;;;;;10.13;5.50;;;;;;;18.21;55.25;98690.31;10623696;27;20047;-53
2021/03/09 07:01:39;;;;;;;9.00;4.93;;;;;;;18.15;49.78;98685.81;10624178;27;20055;-57
2021/03/09 07:06:45;;;;;;;9.15;4.90;;;;;;;17.55;49.05;98695.50;10665722;27;20429;-56
2021/03/09 07:11:49;;;;;;;11.18;5.53;;;;;;;18.99;50.75;98697.59;10671550;27;20144;-55
2021/03/09 07:16:53;;;;;;;9.00;4.85;;;;;;;19.11;49.40;98711.91;10667483;27;20070;-57
2021/03/09 07:21:57;;;;;;;12.68;4.93;;;;;;;21.08;49.96;98699.25;10647013;27;20058;-55
2021/03/09 07:27:11;;;;;;;9.90;4.50;;;;;;;21.53;45.98;98706.16;10666851;27;20132;-54
2021/03/09 07:32:14;;;;;;;8.70;5.05;;;;;;;21.80;45.34;98714.63;10666431;27;20125;-55
2021/03/09 07:37:18;;;;;;;11.25;5.18;;;;;;;20.59;42.98;98708.19;10667607;27;20047;-54
2021/03/09 07:42:20;;;;;;;13.00;6.20;;;;;;;19.51;45.72;98722.41;10675621;27;20440;-55
2021/03/09 07:47:22;;;;;;;13.43;6.40;;;;;;;19.27;48.84;98732.78;10669861;27;20051;-54
2021/03/09 07:52:26;;;;;;;12.18;5.68;;;;;;;21.03;45.92;98725.00;10666987;27;20619;-55
2021/03/09 07:57:29;;;;;;;10.43;5.28;;;;;;;22.33;45.73;98723.75;10667331;27;20128;-53
2021/03/09 08:02:49;;;;;;;10.18;5.20;;;;;;;22.50;43.32;98733.53;10645801;27;20047;-53
2021/03/09 08:07:54;;;;;;;8.75;4.50;;;;;;;22.44;42.49;98745.16;10664348;27;20087;-53
2021/03/09 08:12:55;;;;;;;10.15;5.43;;;;;;;21.93;43.35;98740.38;10685364;27;20099;-56
2021/03/09 08:18:35;;;;;;;9.18;4.95;;;;;;;20.47;44.24;98742.75;10673956;27;20405;-53
2021/03/09 08:23:58;;;;;;;12.40;5.78;;;;;;;19.39;44.20;98729.44;10660164;27;20050;-54
2021/03/09 08:29:00;;;;;;;10.70;4.95;;;;;;;16.45;47.65;98759.00;10675560;27;20053;-52
2021/03/09 08:34:22;;;;;;;8.70;5.05;;;;;;;18.04;47.92;98758.22;10687124;27;20026;-53
2021/03/09 08:39:25;;;;;;;10.65;5.65;;;;;;;19.89;46.44;98766.97;10667206;27;20054;-54
2021/03/09 08:44:28;;;;;;;13.10;5.33;;;;;;;18.55;43.14;98766.47;10670358;27;20047;-54
2021/03/09 08:49:46;;;;;;;11.20;5.00;;;;;;;17.02;47.22;98765.13;10653080;27;20316;-53
2021/03/09 08:54:50;;;;;;;10.02;5.57;;;;;;;14.59;51.37;98777.88;10667650;27;20546;-54
2021/03/09 08:59:52;;;;;;;9.75;4.97;;;;;;;19.29;51.79;98784.00;10670299;27;20110;-51
2021/03/09 09:04:55;;;;;;;9.13;4.43;;;;;;;19.14;48.10;98791.41;10672365;27;20103;-51
2021/03/09 09:10:04;;;;;;;11.75;5.22;;;;;;;21.27;45.01;98790.91;10683739;27;20133;-53
2021/03/09 09:15:13;;;;;;;8.95;4.95;;;;;;;24.03;43.44;98789.63;10677923;27;20057;-55
2021/03/09 09:20:19;;;;;;;12.45;5.82;;;;;;;24.72;40.38;98789.50;10670361;27;20051;-59
2021/03/09 09:25:23;;;;;;;10.05;5.20;;;;;;;23.01;37.54;98790.19;10677228;27;20111;-54
2021/03/09 09:30:35;;;;;;;9.07;5.00;;;;;;;19.97;41.32;98796.06;10676900;27;20050;-56
2021/03/09 09:35:37;;;;;;;10.32;5.32;;;;;;;14.85;40.60;98805.78;10674475;27;20043;-54
2021/03/09 09:40:41;;;;;;;11.40;4.73;;;;;;;11.85;46.14;98816.91;10668446;27;20403;-50
2021/03/09 09:45:44;;;;;;;11.23;5.10;;;;;;;10.54;51.31;98815.38;10670841;27;20054;-53
2021/03/09 09:50:48;;;;;;;9.20;4.33;;;;;;;11.74;52.25;98818.03;10681982;27;20111;-63
2021/03/09 09:55:54;;;;;;;9.38;4.65;;;;;;;12.32;50.13;98820.81;10676831;27;20466;-53
2021/03/09 10:00:56;;;;;;;10.80;4.55;;;;;;;12.09;49.26;98817.97;10669219;27;20034;-51
2021/03/09 10:06:15;;;;;;;11.50;4.22;;;;;;;9.87;51.07;98817.50;10669491;27;20051;-53
2021/03/09 10:11:17;;;;;;;13.23;4.50;;;;;;;8.25;53.86;98828.13;10669572;27;20057;-51
2021/03/09 10:16:37;;;;;;;10.90;4.95;;;;;;;7.26;54.01;98825.44;10669579;27;20069;-53
2021/03/09 10:21:39;;;;;;;10.95;4.70;;;;;;;5.74;52.38;98832.69;10671431;27;20054;-53
2021/03/09 10:26:42;;;;;;;10.50;4.20;;;;;;;4.59;55.25;98836.28;10676540;27;20436;-50
2021/03/09 10:31:47;;;;;;;11.38;5.53;;;;;;;4.07;57.10;98841.88;10668932;27;20194;-52
2021/03/09 10:36:56;;;;;;;14.20;4.70;;;;;;;4.20;58.66;98831.41;10651754;27;20050;-50
2021/03/09 10:41:59;;;;;;;11.98;5.15;;;;;;;3.52;57.91;98843.19;10669791;27;20387;-52
2021/03/09 10:47:02;;;;;;;10.57;4.53;;;;;;;2.98;58.55;98844.28;10669557;27;20057;-60
2021/03/09 10:52:06;;;;;;;9.75;5.03;;;;;;;2.36;57.81;98841.50;10668582;27;20510;-51
2021/03/09 10:57:10;;;;;;;13.48;5.07;;;;;;;1.90;58.20;98845.28;10649702;27;20054;-51
2021/03/09 11:02:12;;;;;;;12.00;5.32;;;;;;;2.02;59.53;98841.09;10671025;27;20039;-52
2021/03/09 11:07:13;;;;;;;11.60;4.95;;;;;;;1.98;60.56;98852.59;10669068;27;20046;-50
2021/03/09 11:12:16;;;;;;;8.85;4.22;;;;;;;1.72;60.12;98852.44;10666345;27;20482;-53
2021/03/09 11:17:17;;;;;;;11.18;4.53;;;;;;;1.35;60.17;98849.53;10665729;27;20050;-54
2021/03/09 11:22:19;;;;;;;12.20;5.60;;;;;;;1.34;59.86;98862.59;10667818;27;20119;-54
2021/03/09 11:27:22;;;;;;;10.48;4.10;;;;;;;1.31;62.02;98855.84;10666229;27;20137;-50
2021/03/09 11:32:24;;;;;;;14.25;5.68;;;;;;;1.48;61.90;98864.31;10667103;27;20447;-53
2021/03/09 11:37:26;;;;;;;12.25;5.20;;;;;;;1.21;60.09;98867.69;10668478;27;20058;-50
2021/03/09 11:42:28;;;;;;;11.77;5.68;;;;;;;0.50;60.01;98877.94;10668316;27;20095;-50
2021/03/09 11:47:30;;;;;;;12.05;4.88;;;;;;;0.43;60.52;98875.69;10666831;27;20072;-53
2021/03/09 11:52:32;;;;;;;11.02;4.88;;;;;;;0.60;60.45;98881.63;10668542;27;20059;-51
2021/03/09 11:57:34;;;;;;;10.45;4.97;;;;;;;0.47;60.22;98880.69;10648501;27;20444;-52
2021/03/09 12:02:42;;;;;;;9.50;4.38;;;;;;;-0.43;58.29;98889.06;10665722;27;20180;-52
2021/03/09 12:07:44;;;;;;;12.73;4.72;;;;;;;-1.09;60.08;98897.66;10648954;27;20299;-50
2021/03/09 12:12:46;;;;;;;10.57;4.20;;;;;;;-1.30;61.24;98902.13;10650983;27;20038;-50
2021/03/09 12:17:48;;;;;;;10.43;5.47;;;;;;;-1.60;60.41;98918.19;10670023;27;20479;-51
2021/03/09 12:22:50;;;;;;;11.60;5.28;;;;;;;-2.09;59.56;98917.91;10666936;27;20107;-48
2021/03/09 12:27:52;;;;;;;9.60;4.07;;;;;;;-2.66;58.97;98922.19;10672271;27;20043;-48
2021/03/09 12:32:54;;;;;;;13.23;4.30;;;;;;;-2.81;61.54;98924.53;10674502;27;20988;-58
2021/03/09 12:37:55;;;;;;;10.48;3.63;;;;;;;-2.81;61.56;98924.53;10667908;27;20413;-51
2021/03/09 12:42:58;;;;;;;9.25;3.92;;;;;;;-3.02;61.17;98921.16;10665497;27;20471;-48
2021/03/09 12:48:00;;;;;;;14.82;5.32;;;;;;;-3.25;60.18;98934.13;10663194;27;20046;-49
2021/03/09 12:53:01;;;;;;;10.93;4.65;;;;;;;-3.62;59.75;98939.91;10660278;27;20073;-48
2021/03/09 12:58:04;;;;;;;11.27;5.30;;;;;;;-3.86;60.48;98947.66;10667748;27;20051;-48
2021/03/09 13:03:05;;;;;;;14.63;3.93;;;;;;;-4.18;60.07;98946.34;10622637;27;20039;-51
2021/03/09 13:08:07;;;;;;;13.52;4.95;;;;;;;-4.40;60.52;98956.56;10673988;27;20046;-51
2021/03/09 13:13:10;;;;;;;8.35;4.18;;;;;;;-4.59;59.68;98946.09;10671877;27;20050;-49
2021/03/09 13:18:11;;;;;;;9.23;4.10;;;;;;;-4.59;60.37;98951.22;10670509;27;20050;-50
2021/03/09 13:23:13;;;;;;;11.27;5.68;;;;;;;-4.42;61.29;98960.91;10670515;27;20240;-49
2021/03/09 13:28:16;;;;;;;13.77;3.83;;;;;;;-4.26;61.37;98956.88;10672426;27;20046;-54
2021/03/09 13:33:17;;;;;;;10.25;4.35;;;;;;;-4.23;60.49;98973.88;10676370;27;20345;-49
2021/03/09 13:38:19;;;;;;;15.05;4.50;;;;;;;-4.40;60.35;98982.22;10672664;27;20058;-51
2021/03/09 13:43:22;;;;;;;11.40;4.85;;;;;;;-4.61;60.46;98972.72;10672484;27;20043;-54
2021/03/09 13:48:24;;;;;;;8.05;3.13;;;;;;;-4.81;60.64;98975.94;10671307;27;20078;-48
2021/03/09 13:53:26;;;;;;;11.80;3.42;;;;;;;-4.93;60.78;98972.06;10672118;27;20589;-48
2021/03/09 13:58:29;;;;;;;11.43;4.25;;;;;;;-5.16;60.34;98985.66;10669597;27;20487;-51
2021/03/09 14:03:30;;;;;;;14.00;4.68;;;;;;;-5.10;60.80;98988.88;10669907;27;20149;-48
2021/03/09 14:08:32;;;;;;;14.02;5.75;;;;;;;-5.01;60.97;98986.91;10669854;27;20042;-49
2021/03/09 14:13:35;;;;;;;11.88;4.20;;;;;;;-5.10;60.03;98990.59;10669999;27;20057;-48
2021/03/09 14:18:37;;;;;;;11.80;3.53;;;;;;;-5.27;60.33;98992.84;10674923;27;20054;-49
2021/03/09 14:23:38;;;;;;;14.93;4.50;;;;;;;-5.24;60.22;99001.28;10677266;27;20436;-51
2021/03/09 14:28:41;;;;;;;11.52;4.43;;;;;;;-5.32;60.33;98993.84;10663830;27;20387;-48
2021/03/09 14:33:42;;;;;;;12.50;4.65;;;;;;;-5.28;60.85;99004.00;10627390;27;20051;-49
2021/03/09 14:38:44;;;;;;;9.48;4.45;;;;;;;-5.21;59.80;99014.00;10626885;27;20428;-48
2021/03/09 14:43:47;;;;;;;11.13;3.63;;;;;;;-5.33;60.04;99022.06;10626691;27;20142;-49
2021/03/09 14:48:48;;;;;;;12.38;4.30;;;;;;;-5.58;59.96;99020.28;10627057;27;20054;-55
2021/03/09 14:53:50;;;;;;;8.32;3.22;;;;;;;-5.64;59.94;99020.44;10627495;27;20051;-49
2021/03/09 14:58:53;;;;;;;8.70;3.42;;;;;;;-5.81;59.28;99032.94;10606769;27;20372;-51
2021/03/09 15:03:56;;;;;;;10.67;3.37;;;;;;;-6.07;58.94;99037.09;10633451;27;20129;-51
2021/03/09 15:08:58;;;;;;;9.60;4.28;;;;;;;-6.28;59.10;99047.94;10667586;27;20062;-50
2021/03/09 15:14:01;;;;;;;10.40;4.00;;;;;;;-6.48;58.57;99051.03;10667451;27;20508;-48
2021/03/09 15:19:02;;;;;;;9.68;3.75;;;;;;;-6.68;58.26;99066.03;10667945;27;20039;-48
2021/03/09 15:24:05;;;;;;;15.05;4.10;;;;;;;-6.83;58.60;99075.78;10667439;27;20396;-51
2021/03/09 15:29:08;;;;;;;6.37;2.87;;;;;;;-6.92;58.43;99096.47;10664765;27;20053;-51
2021/03/09 15:34:10;;;;;;;12.48;4.60;;;;;;;-7.08;58.11;99100.25;10664885;27;20130;-51
2021/03/09 15:39:11;;;;;;;9.50;2.55;;;;;;;-7.18;57.95;99099.63;10665294;27;20038;-50
2021/03/09 15:44:14;;;;;;;12.43;4.05;;;;;;;-7.34;57.59;99098.28;10665742;27;20047;-48
2021/03/09 15:49:16;;;;;;;12.87;4.03;;;;;;;-7.49;57.50;99105.41;10666358;27;20095;-50
2021/03/09 15:54:17;;;;;;;7.03;2.67;;;;;;;-7.65;57.85;99099.78;10666439;27;20050;-48
2021/03/09 15:59:20;;;;;;;7.30;3.10;;;;;;;-7.74;58.18;99122.13;10632454;27;20536;-53
2021/03/09 16:04:21;;;;;;;14.53;4.17;;;;;;;-7.81;58.31;99133.31;10638719;27;20053;-51
2021/03/09 16:09:23;;;;;;;13.32;4.47;;;;;;;-7.82;58.29;99141.84;10667331;27;20514;-48
2021/03/09 16:14:25;;;;;;;11.27;5.05;;;;;;;-7.90;57.95;99154.75;10665704;27;20062;-49
2021/03/09 16:19:27;;;;;;;3.93;1.87;;;;;;;-7.92;58.20;99153.94;10665428;27;20047;-50
2021/03/09 16:24:29;;;;;;;5.18;2.15;;;;;;;-8.14;57.50;99154.34;10663616;27;20067;-48
2021/03/09 16:29:32;;;;;;;8.20;3.58;;;;;;;-8.19;57.88;99157.81;10638336;27;20035;-48
2021/03/09 16:34:33;;;;;;;5.33;2.03;;;;;;;-8.26;58.33;99172.41;10631930;27;20103;-53
2021/03/09 16:39:35;;;;;;;13.27;3.85;;;;;;;-8.19;58.69;99173.13;10632646;27;20039;-50
2021/03/09 16:44:38;;;;;;;4.50;1.83;;;;;;;-8.14;58.52;99184.09;10630936;27;20483;-50
2021/03/09 16:49:40;;;;;;;;;;;;;;;-8.19;58.51;99186.75;10632007;27;20484;-51
2021/03/09 16:54:41;;;;;;;5.97;2.42;;;;;;;-8.30;57.40;99185.25;10630916;27;19995;-50
2021/03/09 16:59:44;;;;;;;9.43;3.10;;;;;;;-8.60;56.56;99179.81;10633439;27;20042;-48
2021/03/09 17:04:45;;;;;;;10.40;3.53;;;;;;;-8.73;57.50;99208.91;10670233;27;20467;-48
2021/03/09 17:09:47;;;;;;;7.70;3.00;;;;;;;-8.69;57.14;99211.38;10652359;27;20043;-55
2021/03/09 17:14:49;;;;;;;8.27;3.42;;;;;;;-8.66;57.07;99218.13;10672541;27;20489;-50
2021/03/09 17:19:51;;;;;;;8.07;2.95;;;;;;;-8.61;56.76;99207.00;10657665;27;20047;-53
2021/03/09 17:24:53;;;;;;;4.15;1.73;;;;;;;-8.65;56.59;99227.44;10671691;27;20038;-50
2021/03/09 17:29:55;;;;;;;6.65;2.45;;;;;;;-8.83;55.73;99195.47;10672638;27;20050;-48
2021/03/09 17:34:57;;;;;;;6.63;2.87;;;;;;;-9.04;55.38;99196.63;10672294;27;20436;-56
2021/03/09 17:39:58;;;;;;;7.15;2.70;;;;;;;-9.15;55.74;99208.66;10655067;27;20478;-57
2021/03/09 17:45:01;;;;;;;10.10;5.38;;;;;;;-9.15;56.36;99222.22;10669301;27;20163;-48
2021/03/09 17:50:03;;;;;;;8.90;2.92;;;;;;;-9.15;56.17;99227.31;10669140;27;20145;-50
2021/03/09 17:55:06;;;;;;;8.40;3.13;;;;;;;-9.10;55.72;99222.16;10653207;27;20503;-49
2021/03/09 18:00:10;;;;;;;12.63;3.10;;;;;;;-9.11;55.07;99223.00;10669222;27;20747;-47
2021/03/09 18:05:18;;;;;;;8.55;3.03;;;;;;;-9.25;54.78;99238.47;10667484;27;20046;-52
2021/03/09 18:10:22;;;;;;;5.22;1.88;;;;;;;-9.34;54.32;99241.13;10667533;27;20062;-48
2021/03/09 18:15:27;;;;;;;10.15;4.38;;;;;;;-9.40;55.04;99251.38;10672455;27;20165;-50
2021/03/09 18:20:29;;;;;;;7.68;3.50;;;;;;;-9.42;54.39;99248.88;10670821;27;20082;-48
2021/03/09 18:25:30;;;;;;;6.45;3.00;;;;;;;-9.47;54.66;99245.53;10669312;27;20110;-49
2021/03/09 18:30:33;;;;;;;7.27;3.23;;;;;;;-9.51;54.42;99259.16;10647413;27;20061;-47
2021/03/09 18:35:35;;;;;;;9.37;3.67;;;;;;;-9.58;54.17;99260.91;10644380;27;20046;-48
2021/03/09 18:40:37;;;;;;;5.18;2.40;;;;;;;-9.58;53.50;99247.34;10666912;27;20368;-48
2021/03/09 18:45:39;;;;;;;13.70;4.10;;;;;;;-9.71;54.28;99281.41;10668139;27;20050;-47
2021/03/09 18:50:41;;;;;;;8.27;2.20;;;;;;;-9.74;53.74;99282.28;10668692;27;20047;-52
2021/03/09 18:55:43;;;;;;;11.65;3.72;;;;;;;-9.75;54.29;99281.44;10668115;27;20050;-50
2021/03/09 19:00:47;;;;;;;7.28;2.67;;;;;;;-9.77;53.49;99290.78;10667728;27;20126;-51
2021/03/09 19:05:48;;;;;;;5.33;2.60;;;;;;;-9.86;54.10;99298.50;10668187;27;20050;-51
2021/03/09 19:10:50;;;;;;;5.80;2.30;;;;;;;-9.82;54.08;99296.75;10665950;27;20304;-48
2021/03/09 19:15:52;;;;;;;9.48;3.97;;;;;;;-9.81;53.13;99309.47;10667366;27;20042;-48
2021/03/09 19:20:54;;;;;;;7.68;3.35;;;;;;;-9.86;53.99;99307.84;10666833;27;20537;-48
2021/03/09 19:25:56;;;;;;;11.10;2.97;;;;;;;-9.89;53.19;99315.50;10667016;27;20490;-51
2021/03/09 19:30:59;;;;;;;5.25;2.28;;;;;;;-10.13;52.88;99307.19;10668064;27;20042;-47
2021/03/09 19:36:00;;;;;;;6.63;3.63;;;;;;;-10.25;52.39;99320.00;10665785;27;20382;-51
2021/03/09 19:41:02;;;;;;;8.03;3.40;;;;;;;-10.40;52.29;99317.59;10665692;27;20054;-48
2021/03/09 19:46:05;;;;;;;8.83;3.47;;;;;;;-10.48;51.69;99317.66;10665761;27;20046;-50
2021/03/09 19:51:07;;;;;;;7.20;2.73;;;;;;;-10.54;52.06;99318.53;10665590;27;20042;-48
2021/03/09 19:56:09;;;;;;;9.77;4.00;;;;;;;-10.58;51.19;99332.13;10646517;27;20053;-49
2021/03/09 20:01:11;;;;;;;7.93;3.65;;;;;;;-10.59;51.29;99324.50;10647666;27;20471;-56
2021/03/09 20:06:13;;;;;;;10.20;3.80;;;;;;;-10.68;51.06;99328.81;10668120;27;20414;-54
2021/03/09 20:11:14;;;;;;;4.60;1.63;;;;;;;-10.75;51.22;99324.59;10672958;27;20054;-52
2021/03/09 20:16:17;;;;;;;10.27;3.20;;;;;;;-10.79;51.48;99335.63;10672416;27;20051;-50
2021/03/09 20:21:19;;;;;;;9.05;3.85;;;;;;;-10.80;51.46;99338.19;10659642;27;20115;-50
2021/03/09 20:26:22;;;;;;;7.93;3.25;;;;;;;-10.75;51.75;99339.00;10646604;27;20483;-47
2021/03/09 20:31:25;;;;;;;8.83;4.20;;;;;;;-10.72;52.01;99342.34;10654634;27;20406;-51
2021/03/09 20:36:26;;;;;;;14.43;5.20;;;;;;;-10.77;51.48;99344.09;10654627;27;20054;-48
2021/03/09 20:41:28;;;;;;;10.80;3.47;;;;;;;-10.83;51.86;99343.28;10673874;27;20046;-48
2021/03/09 20:46:30;;;;;;;7.53;3.20;;;;;;;-10.91;51.85;99354.28;10673258;27;20038;-47
2021/03/09 20:51:32;;;;;;;17.60;4.68;;;;;;;-10.91;51.85;99366.16;10670722;27;20396;-48
2021/03/09 20:56:34;;;;;;;11.40;4.27;;;;;;;-10.98;51.39;99365.34;10657246;27;20486;-51
2021/03/09 21:01:37;;;;;;;5.47;1.47;;;;;;;-11.05;51.11;99361.13;10653205;27;20043;-50
2021/03/09 21:06:38;;;;;;;8.65;3.13;;;;;;;-11.09;50.90;99345.91;10652680;27;20471;-48
2021/03/09 21:11:40;;;;;;;10.50;3.77;;;;;;;-11.24;51.07;99351.88;10670165;27;20386;-49
2021/03/09 21:16:43;;;;;;;11.23;3.83;;;;;;;-11.27;50.63;99342.56;10654497;27;20042;-50
2021/03/09 21:21:44;;;;;;;11.77;4.97;;;;;;;-11.21;51.60;99352.72;10650735;27;20145;-47
2021/03/09 21:26:46;;;;;;;9.53;2.37;;;;;;;-11.26;50.85;99351.91;10670463;27;20104;-50
2021/03/09 21:31:49;;;;;;;7.03;3.13;;;;;;;-11.32;51.37;99349.38;10670254;27;20110;-48
2021/03/09 21:36:51;;;;;;;6.63;2.60;;;;;;;-11.48;51.02;99357.84;10653233;27;20143;-47
2021/03/09 21:41:53;;;;;;;9.00;2.70;;;;;;;-11.52;50.81;99367.16;10586448;28;20067;-50
2021/03/09 21:46:55;;;;;;;12.03;4.60;;;;;;;-11.50;50.85;99375.63;10586976;28;20054;-51
2021/03/09 21:51:57;;;;;;;5.65;2.30;;;;;;;-11.59;51.01;99376.47;10632255;27;20042;-48
2021/03/09 21:56:58;;;;;;;9.10;3.63;;;;;;;-11.62;51.18;99386.63;10671667;27;20050;-55
2021/03/09 22:02:01;;;;;;;4.30;1.73;;;;;;;-11.68;50.78;99390.84;10673444;27;20042;-54
2021/03/09 22:07:03;;;;;;;12.23;3.88;;;;;;;-11.79;51.05;99398.47;10671971;27;20062;-49
2021/03/09 22:12:06;;;;;;;11.43;4.03;;;;;;;-11.85;51.11;99403.59;10671594;27;20054;-47
2021/03/09 22:17:09;;;;;;;9.43;3.07;;;;;;;-11.95;50.83;99407.78;10670262;27;20046;-48
2021/03/09 22:22:10;;;;;;;7.78;3.45;;;;;;;-11.98;51.30;99412.00;10650196;27;20051;-49
2021/03/09 22:27:16;;;;;;;15.63;4.27;;;;;;;-11.92;50.86;99420.47;10666417;27;20107;-48
2021/03/09 22:32:18;;;;;;;9.87;3.93;;;;;;;-11.88;50.58;99426.41;10668393;27;20538;-51
2021/03/09 22:37:20;;;;;;;15.40;5.18;;;;;;;-12.03;50.62;99423.84;10669254;27;20047;-50
2021/03/09 22:42:22;;;;;;;8.53;2.63;;;;;;;-12.18;50.64;99430.56;10670673;27;20085;-50
2021/03/09 22:47:24;;;;;;;4.23;1.00;;;;;;;-12.18;50.26;99435.63;10651057;27;20061;-51
2021/03/09 22:52:26;;;;;;;12.82;4.75;;;;;;;-12.17;50.47;99452.53;10664256;27;20050;-47
2021/03/09 22:57:27;;;;;;;15.67;4.53;;;;;;;-12.18;49.95;99448.31;10650261;27;20054;-50
2021/03/09 23:02:30;;;;;;;17.80;5.33;;;;;;;-12.32;49.81;99452.47;10669894;27;20042;-50
2021/03/09 23:07:32;;;;;;;6.50;3.30;;;;;;;-12.40;50.40;99461.78;10670300;27;20425;-57
2021/03/09 23:12:33;;;;;;;14.03;5.17;;;;;;;-12.49;50.03;99460.03;10674899;27;20142;-50
2021/03/09 23:17:37;;;;;;;6.30;2.47;;;;;;;-12.52;49.92;99465.94;10671106;27;20482;-46
2021/03/09 23:22:39;;;;;;;24.03;5.43;;;;;;;-12.50;49.90;99467.63;10582385;28;20063;-50